Terminal Aerodrome Forecast
Issued by NWS Charleston, WV

Current Version | Previous Version | Text Only | Print | Product List | Glossary Off
Versions: 1 2 3 4 5 6 7 8 9 10 11 12 13 14 15 16 17 18 19 20 21 22 23 24 25 26

000
FTUS41 KRLX 261100 RRA
TAFHTS
TAF
KHTS 261144Z 2612/2712 01004KT P6SM OVC025
     FM262000 32006KT P6SM BKN035
     FM262100 32006KT 6SM -SHSN BR BKN025
     FM270000 33006KT 3SM -SHSN BR BKN015
     FM270300 33006KT P6SM BKN025
     FM271100 34005KT P6SM BKN035=

USA.gov is the U.S. government's official web portal to all federal, state and local government web resources and services.